sensor_id;sensor_type;location;lat;lon;timestamp;temperature;humidity
25188;DHT22;13141;50.414;8.050;2023-03-19T00:02:12;11.10;99.90
25188;DHT22;13141;50.414;8.050;2023-03-19T00:04:37;11.10;99.90
25188;DHT22;13141;50.414;8.050;2023-03-19T00:07:03;11.10;99.90
25188;DHT22;13141;50.414;8.050;2023-03-19T00:09:30;11.10;99.90
25188;DHT22;13141;50.414;8.050;2023-03-19T00:11:56;11.10;99.90
25188;DHT22;13141;50.414;8.050;2023-03-19T00:14:22;11.10;99.90
25188;DHT22;13141;50.414;8.050;2023-03-19T00:16:47;11.10;99.90
25188;DHT22;13141;50.414;8.050;2023-03-19T00:19:13;11.10;99.90
25188;DHT22;13141;50.414;8.050;2023-03-19T00:21:39;11.10;99.90
25188;DHT22;13141;50.414;8.050;2023-03-19T00:24:05;11.10;99.90
25188;DHT22;13141;50.414;8.050;2023-03-19T00:26:33;11.00;99.90
25188;DHT22;13141;50.414;8.050;2023-03-19T00:28:59;11.00;99.90
25188;DHT22;13141;50.414;8.050;2023-03-19T00:31:25;10.80;99.90
25188;DHT22;13141;50.414;8.050;2023-03-19T00:33:51;10.80;99.90
25188;DHT22;13141;50.414;8.050;2023-03-19T00:36:16;10.50;99.90
25188;DHT22;13141;50.414;8.050;2023-03-19T00:38:42;10.90;99.90
25188;DHT22;13141;50.414;8.050;2023-03-19T00:41:09;10.90;99.90
25188;DHT22;13141;50.414;8.050;2023-03-19T00:43:36;10.80;99.90
25188;DHT22;13141;50.414;8.050;2023-03-19T00:46:01;10.80;99.90
25188;DHT22;13141;50.414;8.050;2023-03-19T00:48:27;10.80;99.90
25188;DHT22;13141;50.414;8.050;2023-03-19T00:50:53;10.80;99.90
25188;DHT22;13141;50.414;8.050;2023-03-19T00:53:18;10.80;99.90
25188;DHT22;13141;50.414;8.050;2023-03-19T00:55:44;10.90;99.90
25188;DHT22;13141;50.414;8.050;2023-03-19T00:58:10;10.90;99.90
25188;DHT22;13141;50.414;8.050;2023-03-19T01:00:37;10.90;99.90
25188;DHT22;13141;50.414;8.050;2023-03-19T01:03:03;10.90;99.90
25188;DHT22;13141;50.414;8.050;2023-03-19T01:05:29;10.80;99.90
25188;DHT22;13141;50.414;8.050;2023-03-19T01:07:55;10.80;99.90
25188;DHT22;13141;50.414;8.050;2023-03-19T01:10:23;10.70;99.90
25188;DHT22;13141;50.414;8.050;2023-03-19T01:12:49;10.70;99.90
25188;DHT22;13141;50.414;8.050;2023-03-19T01:15:15;10.70;99.90
25188;DHT22;13141;50.414;8.050;2023-03-19T01:17:42;10.70;99.90
25188;DHT22;13141;50.414;8.050;2023-03-19T01:20:09;10.40;99.90
25188;DHT22;13141;50.414;8.050;2023-03-19T01:22:36;10.70;99.90
25188;DHT22;13141;50.414;8.050;2023-03-19T01:25:03;10.70;99.90
25188;DHT22;13141;50.414;8.050;2023-03-19T01:27:28;10.70;99.90
25188;DHT22;13141;50.414;8.050;2023-03-19T01:29:54;10.70;99.90
25188;DHT22;13141;50.414;8.050;2023-03-19T01:32:20;10.70;99.90
25188;DHT22;13141;50.414;8.050;2023-03-19T01:34:47;10.70;99.90
25188;DHT22;13141;50.414;8.050;2023-03-19T01:37:12;10.80;99.90
25188;DHT22;13141;50.414;8.050;2023-03-19T01:39:38;10.80;99.90
25188;DHT22;13141;50.414;8.050;2023-03-19T01:42:03;10.80;99.90
25188;DHT22;13141;50.414;8.050;2023-03-19T01:44:31;10.80;99.90
25188;DHT22;13141;50.414;8.050;2023-03-19T01:46:57;10.80;99.90
25188;DHT22;13141;50.414;8.050;2023-03-19T01:49:25;10.80;99.90
25188;DHT22;13141;50.414;8.050;2023-03-19T01:51:54;10.80;99.90
25188;DHT22;13141;50.414;8.050;2023-03-19T01:54:23;10.80;99.90
25188;DHT22;13141;50.414;8.050;2023-03-19T01:56:51;10.80;99.90
25188;DHT22;13141;50.414;8.050;2023-03-19T01:59:21;10.80;99.90
25188;DHT22;13141;50.414;8.050;2023-03-19T02:01:51;10.80;99.90
25188;DHT22;13141;50.414;8.050;2023-03-19T02:04:19;10.70;99.90
25188;DHT22;13141;50.414;8.050;2023-03-19T02:06:44;10.70;99.90
25188;DHT22;13141;50.414;8.050;2023-03-19T02:09:12;10.70;99.90
25188;DHT22;13141;50.414;8.050;2023-03-19T02:11:39;10.70;99.90
25188;DHT22;13141;50.414;8.050;2023-03-19T02:14:04;10.70;99.90
25188;DHT22;13141;50.414;8.050;2023-03-19T02:16:30;10.70;99.90
25188;DHT22;13141;50.414;8.050;2023-03-19T02:18:56;10.70;99.90
25188;DHT22;13141;50.414;8.050;2023-03-19T02:21:22;10.70;99.90
25188;DHT22;13141;50.414;8.050;2023-03-19T02:23:54;10.70;99.90
25188;DHT22;13141;50.414;8.050;2023-03-19T02:26:24;10.70;99.90
25188;DHT22;13141;50.414;8.050;2023-03-19T02:28:51;10.70;99.90
25188;DHT22;13141;50.414;8.050;2023-03-19T02:31:18;10.70;99.90
25188;DHT22;13141;50.414;8.050;2023-03-19T02:33:44;10.70;99.90
25188;DHT22;13141;50.414;8.050;2023-03-19T02:36:12;10.70;99.90
25188;DHT22;13141;50.414;8.050;2023-03-19T02:38:40;10.60;99.90
25188;DHT22;13141;50.414;8.050;2023-03-19T02:41:08;10.60;99.90
25188;DHT22;13141;50.414;8.050;2023-03-19T02:43:37;10.50;99.90
25188;DHT22;13141;50.414;8.050;2023-03-19T02:46:05;10.40;99.90
25188;DHT22;13141;50.414;8.050;2023-03-19T02:48:31;10.40;99.90
25188;DHT22;13141;50.414;8.050;2023-03-19T02:50:57;10.30;99.90
25188;DHT22;13141;50.414;8.050;2023-03-19T02:53:23;10.30;99.90
25188;DHT22;13141;50.414;8.050;2023-03-19T02:55:48;10.30;99.90
25188;DHT22;13141;50.414;8.050;2023-03-19T02:58:14;10.30;99.90
25188;DHT22;13141;50.414;8.050;2023-03-19T03:00:41;10.20;99.90
25188;DHT22;13141;50.414;8.050;2023-03-19T03:03:07;10.10;99.90
25188;DHT22;13141;50.414;8.050;2023-03-19T03:05:34;10.10;99.90
25188;DHT22;13141;50.414;8.050;2023-03-19T03:08:00;10.10;99.90
25188;DHT22;13141;50.414;8.050;2023-03-19T03:10:26;10.20;99.90
25188;DHT22;13141;50.414;8.050;2023-03-19T03:12:51;10.20;99.90
25188;DHT22;13141;50.414;8.050;2023-03-19T03:15:17;10.30;99.90
25188;DHT22;13141;50.414;8.050;2023-03-19T03:17:44;10.30;99.90
25188;DHT22;13141;50.414;8.050;2023-03-19T03:20:11;10.30;99.90
25188;DHT22;13141;50.414;8.050;2023-03-19T03:22:38;10.20;99.90
25188;DHT22;13141;50.414;8.050;2023-03-19T03:25:04;10.20;99.90
25188;DHT22;13141;50.414;8.050;2023-03-19T03:27:30;10.20;99.90
25188;DHT22;13141;50.414;8.050;2023-03-19T03:29:56;10.20;99.90
25188;DHT22;13141;50.414;8.050;2023-03-19T03:32:22;10.20;99.90
25188;DHT22;13141;50.414;8.050;2023-03-19T03:34:49;10.20;99.90
25188;DHT22;13141;50.414;8.050;2023-03-19T03:37:15;10.10;99.90
25188;DHT22;13141;50.414;8.050;2023-03-19T03:39:40;10.00;99.90
25188;DHT22;13141;50.414;8.050;2023-03-19T03:42:06;10.00;99.90
25188;DHT22;13141;50.414;8.050;2023-03-19T03:44:31;10.00;99.90
25188;DHT22;13141;50.414;8.050;2023-03-19T03:46:57;10.00;99.90
25188;DHT22;13141;50.414;8.050;2023-03-19T03:49:23;9.90;99.90
25188;DHT22;13141;50.414;8.050;2023-03-19T03:51:49;9.90;99.90
25188;DHT22;13141;50.414;8.050;2023-03-19T03:54:15;9.80;99.90
25188;DHT22;13141;50.414;8.050;2023-03-19T03:56:41;9.80;99.90
25188;DHT22;13141;50.414;8.050;2023-03-19T03:59:06;9.80;99.90
25188;DHT22;13141;50.414;8.050;2023-03-19T04:01:32;9.80;99.90
25188;DHT22;13141;50.414;8.050;2023-03-19T04:03:57;9.70;99.90
25188;DHT22;13141;50.414;8.050;2023-03-19T04:06:24;9.70;99.90
25188;DHT22;13141;50.414;8.050;2023-03-19T04:08:52;9.70;99.90
25188;DHT22;13141;50.414;8.050;2023-03-19T04:11:18;9.60;99.90
25188;DHT22;13141;50.414;8.050;2023-03-19T04:13:43;9.60;99.90
25188;DHT22;13141;50.414;8.050;2023-03-19T04:16:09;9.60;99.90
25188;DHT22;13141;50.414;8.050;2023-03-19T04:18:36;9.70;99.90
25188;DHT22;13141;50.414;8.050;2023-03-19T04:21:02;9.60;99.90
25188;DHT22;13141;50.414;8.050;2023-03-19T04:23:28;9.50;99.90
25188;DHT22;13141;50.414;8.050;2023-03-19T04:25:58;9.40;99.90
25188;DHT22;13141;50.414;8.050;2023-03-19T04:28:24;9.40;99.90
25188;DHT22;13141;50.414;8.050;2023-03-19T04:30:50;9.30;99.90
25188;DHT22;13141;50.414;8.050;2023-03-19T04:33:15;9.30;99.90
25188;DHT22;13141;50.414;8.050;2023-03-19T04:35:41;9.30;99.90
25188;DHT22;13141;50.414;8.050;2023-03-19T04:38:06;9.20;99.90
25188;DHT22;13141;50.414;8.050;2023-03-19T04:40:32;9.20;99.90
25188;DHT22;13141;50.414;8.050;2023-03-19T04:42:59;9.20;99.90
25188;DHT22;13141;50.414;8.050;2023-03-19T04:45:24;9.00;99.90
25188;DHT22;13141;50.414;8.050;2023-03-19T04:47:50;9.00;99.90
25188;DHT22;13141;50.414;8.050;2023-03-19T04:50:16;9.00;99.90
25188;DHT22;13141;50.414;8.050;2023-03-19T04:52:41;8.90;99.90
25188;DHT22;13141;50.414;8.050;2023-03-19T04:55:08;9.00;99.90
25188;DHT22;13141;50.414;8.050;2023-03-19T04:57:34;9.00;99.90
25188;DHT22;13141;50.414;8.050;2023-03-19T05:00:01;9.00;99.90
25188;DHT22;13141;50.414;8.050;2023-03-19T05:02:27;9.00;99.90
25188;DHT22;13141;50.414;8.050;2023-03-19T05:04:53;9.00;99.90
25188;DHT22;13141;50.414;8.050;2023-03-19T05:07:18;9.00;99.90
25188;DHT22;13141;50.414;8.050;2023-03-19T05:09:44;9.00;99.90
25188;DHT22;13141;50.414;8.050;2023-03-19T05:12:10;9.00;99.90
25188;DHT22;13141;50.414;8.050;2023-03-19T05:14:36;9.00;99.90
25188;DHT22;13141;50.414;8.050;2023-03-19T05:17:03;9.00;99.90
25188;DHT22;13141;50.414;8.050;2023-03-19T05:19:29;9.00;99.90
25188;DHT22;13141;50.414;8.050;2023-03-19T05:21:55;9.00;99.90
25188;DHT22;13141;50.414;8.050;2023-03-19T05:24:20;8.90;99.90
25188;DHT22;13141;50.414;8.050;2023-03-19T05:26:46;8.90;99.90
25188;DHT22;13141;50.414;8.050;2023-03-19T05:29:11;8.90;99.90
25188;DHT22;13141;50.414;8.050;2023-03-19T05:31:37;8.80;99.90
25188;DHT22;13141;50.414;8.050;2023-03-19T05:34:04;8.80;99.90
25188;DHT22;13141;50.414;8.050;2023-03-19T05:36:30;8.80;99.90
25188;DHT22;13141;50.414;8.050;2023-03-19T05:38:55;8.80;99.90
25188;DHT22;13141;50.414;8.050;2023-03-19T05:41:21;8.80;99.90
25188;DHT22;13141;50.414;8.050;2023-03-19T05:43:46;8.70;99.90
25188;DHT22;13141;50.414;8.050;2023-03-19T05:46:12;8.70;99.90
25188;DHT22;13141;50.414;8.050;2023-03-19T05:48:38;8.70;99.90
25188;DHT22;13141;50.414;8.050;2023-03-19T05:51:05;8.70;99.90
25188;DHT22;13141;50.414;8.050;2023-03-19T05:53:31;8.70;99.90
25188;DHT22;13141;50.414;8.050;2023-03-19T05:55:56;8.70;99.90
25188;DHT22;13141;50.414;8.050;2023-03-19T05:58:22;8.70;99.90
25188;DHT22;13141;50.414;8.050;2023-03-19T06:00:47;8.60;99.90
25188;DHT22;13141;50.414;8.050;2023-03-19T06:03:13;8.60;99.90
25188;DHT22;13141;50.414;8.050;2023-03-19T06:05:39;8.70;99.90
25188;DHT22;13141;50.414;8.050;2023-03-19T06:08:06;8.50;99.90
25188;DHT22;13141;50.414;8.050;2023-03-19T06:10:32;8.70;99.90
25188;DHT22;13141;50.414;8.050;2023-03-19T06:12:58;8.80;99.90
25188;DHT22;13141;50.414;8.050;2023-03-19T06:15:24;8.80;99.90
25188;DHT22;13141;50.414;8.050;2023-03-19T06:17:49;8.80;99.90
25188;DHT22;13141;50.414;8.050;2023-03-19T06:20:15;8.80;99.90
25188;DHT22;13141;50.414;8.050;2023-03-19T06:22:41;8.80;99.90
25188;DHT22;13141;50.414;8.050;2023-03-19T06:25:08;8.90;99.90
25188;DHT22;13141;50.414;8.050;2023-03-19T06:27:34;8.90;99.90
25188;DHT22;13141;50.414;8.050;2023-03-19T06:29:59;9.00;99.90
25188;DHT22;13141;50.414;8.050;2023-03-19T06:32:25;8.60;99.90
25188;DHT22;13141;50.414;8.050;2023-03-19T06:34:51;9.10;99.90
25188;DHT22;13141;50.414;8.050;2023-03-19T06:37:17;9.20;99.90
25188;DHT22;13141;50.414;8.050;2023-03-19T06:39:42;9.20;99.90
25188;DHT22;13141;50.414;8.050;2023-03-19T06:42:09;8.80;99.90
25188;DHT22;13141;50.414;8.050;2023-03-19T06:44:35;9.30;99.90
25188;DHT22;13141;50.414;8.050;2023-03-19T06:47:00;9.30;99.90
25188;DHT22;13141;50.414;8.050;2023-03-19T06:49:26;9.30;99.90
25188;DHT22;13141;50.414;8.050;2023-03-19T06:51:51;9.30;99.90
25188;DHT22;13141;50.414;8.050;2023-03-19T06:54:17;9.60;99.90
25188;DHT22;13141;50.414;8.050;2023-03-19T06:56:43;9.40;99.90
25188;DHT22;13141;50.414;8.050;2023-03-19T06:59:10;9.40;99.90
25188;DHT22;13141;50.414;8.050;2023-03-19T07:01:35;9.50;99.90
25188;DHT22;13141;50.414;8.050;2023-03-19T07:04:01;9.50;99.90
25188;DHT22;13141;50.414;8.050;2023-03-19T07:06:26;9.60;99.90
25188;DHT22;13141;50.414;8.050;2023-03-19T07:08:52;9.60;99.90
25188;DHT22;13141;50.414;8.050;2023-03-19T07:11:17;9.50;99.90
25188;DHT22;13141;50.414;8.050;2023-03-19T07:13:43;9.70;99.90
25188;DHT22;13141;50.414;8.050;2023-03-19T07:16:10;9.70;99.90
25188;DHT22;13141;50.414;8.050;2023-03-19T07:18:35;9.70;99.90
25188;DHT22;13141;50.414;8.050;2023-03-19T07:21:01;9.60;99.90
25188;DHT22;13141;50.414;8.050;2023-03-19T07:23:27;9.70;99.90
25188;DHT22;13141;50.414;8.050;2023-03-19T07:25:52;9.80;99.90
25188;DHT22;13141;50.414;8.050;2023-03-19T07:28:18;9.80;99.90
25188;DHT22;13141;50.414;8.050;2023-03-19T07:30:43;9.80;99.90
25188;DHT22;13141;50.414;8.050;2023-03-19T07:33:12;9.90;99.90
25188;DHT22;13141;50.414;8.050;2023-03-19T07:35:38;10.00;99.90
25188;DHT22;13141;50.414;8.050;2023-03-19T07:38:03;10.00;99.90
25188;DHT22;13141;50.414;8.050;2023-03-19T07:40:29;9.80;99.90
25188;DHT22;13141;50.414;8.050;2023-03-19T07:42:54;10.20;99.90
25188;DHT22;13141;50.414;8.050;2023-03-19T07:45:20;10.30;99.90
25188;DHT22;13141;50.414;8.050;2023-03-19T07:47:45;10.40;99.90
25188;DHT22;13141;50.414;8.050;2023-03-19T07:50:12;10.40;99.90
25188;DHT22;13141;50.414;8.050;2023-03-19T07:52:38;10.40;99.90
25188;DHT22;13141;50.414;8.050;2023-03-19T07:55:05;10.30;99.90
25188;DHT22;13141;50.414;8.050;2023-03-19T07:57:31;10.20;99.90
25188;DHT22;13141;50.414;8.050;2023-03-19T07:59:56;10.20;99.90
25188;DHT22;13141;50.414;8.050;2023-03-19T08:02:22;10.30;99.90
25188;DHT22;13141;50.414;8.050;2023-03-19T08:04:47;10.30;99.90
25188;DHT22;13141;50.414;8.050;2023-03-19T08:07:14;10.30;99.90
25188;DHT22;13141;50.414;8.050;2023-03-19T08:09:40;10.30;99.90
25188;DHT22;13141;50.414;8.050;2023-03-19T08:12:06;10.40;99.90
25188;DHT22;13141;50.414;8.050;2023-03-19T08:14:32;10.50;99.90
25188;DHT22;13141;50.414;8.050;2023-03-19T08:16:57;10.60;99.90
25188;DHT22;13141;50.414;8.050;2023-03-19T08:19:23;10.70;99.90
25188;DHT22;13141;50.414;8.050;2023-03-19T08:21:49;10.80;99.90
25188;DHT22;13141;50.414;8.050;2023-03-19T08:24:16;10.90;99.90
25188;DHT22;13141;50.414;8.050;2023-03-19T08:26:41;10.90;99.90
25188;DHT22;13141;50.414;8.050;2023-03-19T08:29:07;10.90;99.90
25188;DHT22;13141;50.414;8.050;2023-03-19T08:31:33;10.90;99.90
25188;DHT22;13141;50.414;8.050;2023-03-19T08:33:58;10.90;99.90
25188;DHT22;13141;50.414;8.050;2023-03-19T08:36:24;11.00;99.90
25188;DHT22;13141;50.414;8.050;2023-03-19T08:38:50;11.10;99.90
25188;DHT22;13141;50.414;8.050;2023-03-19T08:41:17;11.10;99.90
25188;DHT22;13141;50.414;8.050;2023-03-19T08:43:42;11.10;99.90
25188;DHT22;13141;50.414;8.050;2023-03-19T08:46:08;11.20;99.90
25188;DHT22;13141;50.414;8.050;2023-03-19T08:48:33;11.20;99.90
25188;DHT22;13141;50.414;8.050;2023-03-19T08:51:01;11.20;99.90
25188;DHT22;13141;50.414;8.050;2023-03-19T08:53:27;11.20;99.90
25188;DHT22;13141;50.414;8.050;2023-03-19T08:55:54;11.30;99.90
25188;DHT22;13141;50.414;8.050;2023-03-19T08:58:21;11.40;99.90
25188;DHT22;13141;50.414;8.050;2023-03-19T09:00:47;11.50;99.90
25188;DHT22;13141;50.414;8.050;2023-03-19T09:03:12;11.60;99.90
25188;DHT22;13141;50.414;8.050;2023-03-19T09:05:38;11.70;99.90
25188;DHT22;13141;50.414;8.050;2023-03-19T09:08:04;11.80;99.90
25188;DHT22;13141;50.414;8.050;2023-03-19T09:10:30;11.90;99.90
25188;DHT22;13141;50.414;8.050;2023-03-19T09:12:56;11.90;99.90
25188;DHT22;13141;50.414;8.050;2023-03-19T09:15:23;12.00;99.90
25188;DHT22;13141;50.414;8.050;2023-03-19T09:17:49;12.10;99.90
25188;DHT22;13141;50.414;8.050;2023-03-19T09:20:14;12.20;99.90
25188;DHT22;13141;50.414;8.050;2023-03-19T09:22:40;12.30;99.90
25188;DHT22;13141;50.414;8.050;2023-03-19T09:25:07;12.40;99.90
25188;DHT22;13141;50.414;8.050;2023-03-19T09:27:32;12.40;99.90
25188;DHT22;13141;50.414;8.050;2023-03-19T09:29:58;12.50;99.90
25188;DHT22;13141;50.414;8.050;2023-03-19T09:32:25;12.60;99.90
25188;DHT22;13141;50.414;8.050;2023-03-19T09:34:50;12.70;99.90
25188;DHT22;13141;50.414;8.050;2023-03-19T09:37:16;12.80;99.90
25188;DHT22;13141;50.414;8.050;2023-03-19T09:39:42;12.80;99.90
25188;DHT22;13141;50.414;8.050;2023-03-19T09:42:22;12.90;99.90
25188;DHT22;13141;50.414;8.050;2023-03-19T09:44:52;12.80;99.90
25188;DHT22;13141;50.414;8.050;2023-03-19T09:47:26;12.70;99.90
25188;DHT22;13141;50.414;8.050;2023-03-19T09:49:55;12.70;99.90
25188;DHT22;13141;50.414;8.050;2023-03-19T09:52:30;12.70;99.90
25188;DHT22;13141;50.414;8.050;2023-03-19T09:54:59;12.70;99.90
25188;DHT22;13141;50.414;8.050;2023-03-19T09:57:27;12.70;99.90
25188;DHT22;13141;50.414;8.050;2023-03-19T09:59:52;12.80;99.90
25188;DHT22;13141;50.414;8.050;2023-03-19T10:02:40;12.90;99.90
25188;DHT22;13141;50.414;8.050;2023-03-19T10:05:14;12.90;99.90
25188;DHT22;13141;50.414;8.050;2023-03-19T10:08:02;12.90;99.90
25188;DHT22;13141;50.414;8.050;2023-03-19T10:10:41;12.80;99.90
25188;DHT22;13141;50.414;8.050;2023-03-19T10:13:13;12.70;99.90
25188;DHT22;13141;50.414;8.050;2023-03-19T10:15:41;12.70;99.90
25188;DHT22;13141;50.414;8.050;2023-03-19T10:18:14;12.80;99.90
25188;DHT22;13141;50.414;8.050;2023-03-19T10:20:47;12.90;99.90
25188;DHT22;13141;50.414;8.050;2023-03-19T10:23:32;12.90;99.90
25188;DHT22;13141;50.414;8.050;2023-03-19T10:26:02;13.00;99.90
25188;DHT22;13141;50.414;8.050;2023-03-19T10:28:28;13.40;99.90
25188;DHT22;13141;50.414;8.050;2023-03-19T10:31:00;13.70;99.90
25188;DHT22;13141;50.414;8.050;2023-03-19T10:33:35;13.80;99.90
25188;DHT22;13141;50.414;8.050;2023-03-19T10:36:09;14.10;99.90
25188;DHT22;13141;50.414;8.050;2023-03-19T10:38:39;14.30;99.90
25188;DHT22;13141;50.414;8.050;2023-03-19T10:41:15;14.70;99.90
25188;DHT22;13141;50.414;8.050;2023-03-19T10:43:48;15.00;99.90
25188;DHT22;13141;50.414;8.050;2023-03-19T10:46:14;15.40;99.90
25188;DHT22;13141;50.414;8.050;2023-03-19T10:48:44;15.60;99.90
25188;DHT22;13141;50.414;8.050;2023-03-19T10:51:13;15.80;99.90
25188;DHT22;13141;50.414;8.050;2023-03-19T10:53:39;15.90;99.90
25188;DHT22;13141;50.414;8.050;2023-03-19T10:56:06;16.00;99.90
25188;DHT22;13141;50.414;8.050;2023-03-19T10:58:39;16.10;99.90
25188;DHT22;13141;50.414;8.050;2023-03-19T11:01:07;16.20;99.90
25188;DHT22;13141;50.414;8.050;2023-03-19T11:03:35;16.30;99.90
25188;DHT22;13141;50.414;8.050;2023-03-19T11:06:16;16.40;99.90
25188;DHT22;13141;50.414;8.050;2023-03-19T11:08:42;16.60;99.90
25188;DHT22;13141;50.414;8.050;2023-03-19T11:11:22;16.60;99.90
25188;DHT22;13141;50.414;8.050;2023-03-19T11:13:48;16.60;99.90
25188;DHT22;13141;50.414;8.050;2023-03-19T11:16:14;16.60;99.90
25188;DHT22;13141;50.414;8.050;2023-03-19T11:18:39;16.50;99.90
25188;DHT22;13141;50.414;8.050;2023-03-19T11:21:20;16.00;99.90
25188;DHT22;13141;50.414;8.050;2023-03-19T11:23:51;15.80;99.90
25188;DHT22;13141;50.414;8.050;2023-03-19T11:26:18;15.70;99.90
25188;DHT22;13141;50.414;8.050;2023-03-19T11:28:49;15.80;99.90
25188;DHT22;13141;50.414;8.050;2023-03-19T11:31:20;15.90;99.90
25188;DHT22;13141;50.414;8.050;2023-03-19T11:33:58;15.70;99.90
25188;DHT22;13141;50.414;8.050;2023-03-19T11:36:31;15.60;99.90
25188;DHT22;13141;50.414;8.050;2023-03-19T11:39:11;15.60;99.90
25188;DHT22;13141;50.414;8.050;2023-03-19T11:41:48;15.40;99.90
25188;DHT22;13141;50.414;8.050;2023-03-19T11:44:17;15.10;99.90
25188;DHT22;13141;50.414;8.050;2023-03-19T11:46:50;15.10;99.90
25188;DHT22;13141;50.414;8.050;2023-03-19T11:49:36;14.90;99.90
25188;DHT22;13141;50.414;8.050;2023-03-19T11:52:13;14.80;99.90
25188;DHT22;13141;50.414;8.050;2023-03-19T11:54:48;14.70;99.90
25188;DHT22;13141;50.414;8.050;2023-03-19T11:57:26;14.60;99.90
25188;DHT22;13141;50.414;8.050;2023-03-19T12:00:12;14.70;99.90
25188;DHT22;13141;50.414;8.050;2023-03-19T12:05:50;14.40;99.90
25188;DHT22;13141;50.414;8.050;2023-03-19T12:08:30;14.20;99.90
25188;DHT22;13141;50.414;8.050;2023-03-19T12:11:06;13.90;99.90
25188;DHT22;13141;50.414;8.050;2023-03-19T12:13:50;13.50;99.90
25188;DHT22;13141;50.414;8.050;2023-03-19T12:16:23;13.20;99.90
25188;DHT22;13141;50.414;8.050;2023-03-19T12:19:13;12.90;99.90
25188;DHT22;13141;50.414;8.050;2023-03-19T12:21:53;12.80;99.90
25188;DHT22;13141;50.414;8.050;2023-03-19T12:24:32;12.60;99.90
25188;DHT22;13141;50.414;8.050;2023-03-19T12:27:17;12.50;99.90
25188;DHT22;13141;50.414;8.050;2023-03-19T12:29:49;12.50;99.90
25188;DHT22;13141;50.414;8.050;2023-03-19T12:32:28;12.50;99.90
25188;DHT22;13141;50.414;8.050;2023-03-19T12:34:57;12.60;99.90
25188;DHT22;13141;50.414;8.050;2023-03-19T12:37:28;12.70;99.90
25188;DHT22;13141;50.414;8.050;2023-03-19T12:40:06;12.80;99.90
25188;DHT22;13141;50.414;8.050;2023-03-19T12:42:38;13.00;99.90
25188;DHT22;13141;50.414;8.050;2023-03-19T12:45:15;13.20;99.90
25188;DHT22;13141;50.414;8.050;2023-03-19T12:47:43;13.40;99.90
25188;DHT22;13141;50.414;8.050;2023-03-19T12:50:12;13.60;99.90
25188;DHT22;13141;50.414;8.050;2023-03-19T12:52:39;13.80;99.90
25188;DHT22;13141;50.414;8.050;2023-03-19T12:55:15;13.90;99.90
25188;DHT22;13141;50.414;8.050;2023-03-19T12:57:45;14.20;99.90
25188;DHT22;13141;50.414;8.050;2023-03-19T13:00:18;14.30;99.90
25188;DHT22;13141;50.414;8.050;2023-03-19T13:02:51;14.30;99.90
25188;DHT22;13141;50.414;8.050;2023-03-19T13:05:23;14.30;99.90
25188;DHT22;13141;50.414;8.050;2023-03-19T13:07:56;14.10;99.90
25188;DHT22;13141;50.414;8.050;2023-03-19T13:10:23;13.90;99.90
25188;DHT22;13141;50.414;8.050;2023-03-19T13:12:51;14.00;99.90
25188;DHT22;13141;50.414;8.050;2023-03-19T13:15:22;14.20;99.90
25188;DHT22;13141;50.414;8.050;2023-03-19T13:17:56;14.30;99.90
25188;DHT22;13141;50.414;8.050;2023-03-19T13:20:30;14.20;99.90
25188;DHT22;13141;50.414;8.050;2023-03-19T13:23:00;14.10;99.90
25188;DHT22;13141;50.414;8.050;2023-03-19T13:25:31;14.00;99.90
25188;DHT22;13141;50.414;8.050;2023-03-19T13:27:57;13.80;99.90
25188;DHT22;13141;50.414;8.050;2023-03-19T13:30:23;13.80;99.90
25188;DHT22;13141;50.414;8.050;2023-03-19T13:32:51;13.90;99.90
25188;DHT22;13141;50.414;8.050;2023-03-19T13:35:27;14.00;99.90
25188;DHT22;13141;50.414;8.050;2023-03-19T13:37:58;14.00;99.90
25188;DHT22;13141;50.414;8.050;2023-03-19T13:40:46;14.20;99.90
25188;DHT22;13141;50.414;8.050;2023-03-19T13:43:52;14.70;99.90
25188;DHT22;13141;50.414;8.050;2023-03-19T13:46:34;15.10;99.90
25188;DHT22;13141;50.414;8.050;2023-03-19T13:49:09;15.20;99.90
25188;DHT22;13141;50.414;8.050;2023-03-19T13:51:47;15.60;99.90
25188;DHT22;13141;50.414;8.050;2023-03-19T13:54:15;15.70;99.90
25188;DHT22;13141;50.414;8.050;2023-03-19T13:59:45;15.80;99.90
25188;DHT22;13141;50.414;8.050;2023-03-19T14:02:48;15.80;99.90
25188;DHT22;13141;50.414;8.050;2023-03-19T14:05:18;15.80;99.90
25188;DHT22;13141;50.414;8.050;2023-03-19T14:07:49;15.70;99.90
25188;DHT22;13141;50.414;8.050;2023-03-19T14:10:20;15.60;99.90
25188;DHT22;13141;50.414;8.050;2023-03-19T14:12:48;15.50;99.90
25188;DHT22;13141;50.414;8.050;2023-03-19T14:15:18;15.50;99.90
25188;DHT22;13141;50.414;8.050;2023-03-19T14:17:53;15.50;99.90
25188;DHT22;13141;50.414;8.050;2023-03-19T14:20:23;15.40;99.90
25188;DHT22;13141;50.414;8.050;2023-03-19T14:22:56;15.20;99.90
25188;DHT22;13141;50.414;8.050;2023-03-19T14:25:27;15.60;99.90
25188;DHT22;13141;50.414;8.050;2023-03-19T14:28:17;16.20;99.90
25188;DHT22;13141;50.414;8.050;2023-03-19T14:30:45;17.00;99.90
25188;DHT22;13141;50.414;8.050;2023-03-19T14:33:17;17.70;99.90
25188;DHT22;13141;50.414;8.050;2023-03-19T14:35:45;18.10;99.90
25188;DHT22;13141;50.414;8.050;2023-03-19T14:38:14;18.00;99.90
25188;DHT22;13141;50.414;8.050;2023-03-19T14:40:50;18.00;99.90
25188;DHT22;13141;50.414;8.050;2023-03-19T14:43:28;18.20;99.90
25188;DHT22;13141;50.414;8.050;2023-03-19T14:46:00;18.60;99.90
25188;DHT22;13141;50.414;8.050;2023-03-19T14:49:19;19.20;99.90
25188;DHT22;13141;50.414;8.050;2023-03-19T14:51:57;19.80;99.90
25188;DHT22;13141;50.414;8.050;2023-03-19T14:54:29;19.10;99.90
25188;DHT22;13141;50.414;8.050;2023-03-19T14:57:07;18.30;99.90
25188;DHT22;13141;50.414;8.050;2023-03-19T14:59:41;17.50;99.90
25188;DHT22;13141;50.414;8.050;2023-03-19T15:02:19;17.20;99.90
25188;DHT22;13141;50.414;8.050;2023-03-19T15:04:46;16.70;99.90
25188;DHT22;13141;50.414;8.050;2023-03-19T15:07:18;16.50;99.90
25188;DHT22;13141;50.414;8.050;2023-03-19T15:09:45;16.40;99.90
25188;DHT22;13141;50.414;8.050;2023-03-19T15:12:27;16.70;99.90
25188;DHT22;13141;50.414;8.050;2023-03-19T15:15:10;16.90;99.90
25188;DHT22;13141;50.414;8.050;2023-03-19T15:17:38;16.70;99.90
25188;DHT22;13141;50.414;8.050;2023-03-19T15:20:14;16.50;99.90
25188;DHT22;13141;50.414;8.050;2023-03-19T15:22:41;16.40;99.90
25188;DHT22;13141;50.414;8.050;2023-03-19T15:25:08;16.30;99.90
25188;DHT22;13141;50.414;8.050;2023-03-19T15:27:35;16.20;99.90
25188;DHT22;13141;50.414;8.050;2023-03-19T15:30:17;16.30;99.90
25188;DHT22;13141;50.414;8.050;2023-03-19T15:32:43;16.50;99.90
25188;DHT22;13141;50.414;8.050;2023-03-19T15:35:08;16.30;99.90
25188;DHT22;13141;50.414;8.050;2023-03-19T15:37:36;16.30;99.90
25188;DHT22;13141;50.414;8.050;2023-03-19T15:40:05;16.30;99.90
25188;DHT22;13141;50.414;8.050;2023-03-19T15:42:33;16.20;99.90
25188;DHT22;13141;50.414;8.050;2023-03-19T15:45:06;16.10;99.90
25188;DHT22;13141;50.414;8.050;2023-03-19T15:47:34;16.30;99.90
25188;DHT22;13141;50.414;8.050;2023-03-19T15:50:06;16.30;99.90
25188;DHT22;13141;50.414;8.050;2023-03-19T15:52:37;16.00;99.90